Time;durP1;ratioP1;P1;durP2;ratioP2;P2;SDS_P1;SDS_P2;PMS_P1;PMS_P2;Temp;Humidity;BMP_temperature;BMP_pressure;BME280_temperature;BME280_humidity;BME280_pressure;Samples;Min_cycle;Max_cycle;Signal;HPM_P1;HPM_P2
2021/01/26 00:00:37;;;;;;;112.72;70.35;;;154.10;2252.80;;;;;;5096051;28;20115;-87
2021/01/26 00:03:03;;;;;;;109.63;66.10;;;154.00;2252.80;;;;;;5096376;28;20035;-87
2021/01/26 00:05:29;;;;;;;119.55;72.88;;;154.10;2252.80;;;;;;5096181;28;20032;-86
2021/01/26 00:07:55;;;;;;;118.35;75.32;;;154.20;2252.80;;;;;;5096377;28;20032;-86
2021/01/26 00:10:21;;;;;;;138.63;89.72;;;154.20;2252.80;;;;;;5096291;28;20044;-87
2021/01/26 00:12:46;;;;;;;154.95;103.60;;;154.20;2252.80;;;;;;5095845;28;20078;-87
2021/01/26 00:15:13;;;;;;;150.60;99.68;;;154.10;2252.80;;;;;;5094873;28;20028;-87
2021/01/26 00:17:39;;;;;;;140.80;94.63;;;154.10;2252.80;;;;;;5096187;28;20040;-87
2021/01/26 00:20:08;;;;;;;126.80;84.53;;;154.20;2252.80;;;;;;5095461;28;20036;-88
2021/01/26 00:22:34;;;;;;;113.95;73.75;;;154.20;2252.80;;;;;;5095964;28;20042;-88
2021/01/26 00:25:00;;;;;;;126.85;87.30;;;154.50;2252.80;;;;;;5096320;28;20036;-90
2021/01/26 00:27:26;;;;;;;141.40;94.55;;;154.30;2252.80;;;;;;5097149;28;20052;-90
2021/01/26 00:29:51;;;;;;;169.85;105.32;;;154.30;2252.80;;;;;;5101328;28;20032;-87
2021/01/26 00:32:17;;;;;;;162.13;105.90;;;154.30;2252.80;;;;;;5099928;28;20024;-87
2021/01/26 00:34:43;;;;;;;176.40;107.07;;;154.30;2252.80;;;;;;5095183;28;20028;-88
2021/01/26 00:37:09;;;;;;;168.13;106.68;;;179.40;2252.80;;;;;;5096663;28;20031;-88
2021/01/26 00:39:35;;;;;;;176.82;111.68;;;154.30;2252.80;;;;;;5095580;28;20032;-87
2021/01/26 00:42:01;;;;;;;163.13;98.50;;;154.40;2252.80;;;;;;5096772;28;20024;-87
2021/01/26 00:44:26;;;;;;;146.85;87.72;;;154.30;2252.80;;;;;;5098124;28;20084;-90
2021/01/26 00:46:52;;;;;;;138.30;85.30;;;154.40;2252.80;;;;;;5098183;28;20055;-86
2021/01/26 00:49:18;;;;;;;125.28;71.95;;;154.40;2252.80;;;;;;5098425;28;20451;-87
2021/01/26 00:51:44;;;;;;;125.05;69.80;;;154.40;2252.80;;;;;;5099124;28;20030;-86
2021/01/26 00:54:10;;;;;;;109.85;64.53;;;154.40;2252.80;;;;;;5098335;28;20028;-84
2021/01/26 00:56:36;;;;;;;105.78;59.92;;;154.40;2252.80;;;;;;5098272;28;20153;-82
2021/01/26 00:59:02;;;;;;;82.22;50.53;;;154.40;2252.80;;;;;;5098242;28;20052;-87
2021/01/26 01:01:28;;;;;;;91.35;55.03;;;179.90;2252.80;;;;;;5098164;28;20020;-86
2021/01/26 01:03:53;;;;;;;132.18;74.80;;;154.40;2252.80;;;;;;5101787;28;20039;-86
2021/01/26 01:06:19;;;;;;;107.30;60.80;;;154.40;2252.80;;;;;;5101921;28;20454;-85
2021/01/26 01:08:45;;;;;;;104.78;54.83;;;154.40;2252.80;;;;;;5101750;28;20020;-86
2021/01/26 01:11:11;;;;;;;101.53;52.95;;;154.30;2252.80;;;;;;5101983;28;20028;-85
2021/01/26 01:13:37;;;;;;;71.55;41.55;;;154.30;2252.80;;;;;;5102367;28;20030;-86
2021/01/26 01:16:03;;;;;;;95.18;46.72;;;154.30;2252.80;;;;;;5101446;28;20020;-86
2021/01/26 01:18:29;;;;;;;84.68;43.28;;;154.30;2252.80;;;;;;5119006;28;20028;-86
2021/01/26 01:20:55;;;;;;;57.60;29.77;;;154.30;2252.80;;;;;;5098526;28;20076;-86
2021/01/26 01:23:20;;;;;;;60.95;31.08;;;154.30;2252.80;;;;;;5097748;28;20030;-85
2021/01/26 01:25:47;;;;;;;112.28;41.92;;;154.40;2252.80;;;;;;5098009;28;20024;-86
2021/01/26 01:28:13;;;;;;;139.18;42.83;;;154.40;2252.80;;;;;;5098159;28;20429;-86
2021/01/26 01:30:38;;;;;;;77.15;45.05;;;154.30;2252.80;;;;;;5097464;28;20114;-86
2021/01/26 01:33:05;;;;;;;65.05;46.00;;;154.20;2252.80;;;;;;5097603;28;20031;-86
2021/01/26 01:35:32;;;;;;;53.83;32.38;;;154.10;2252.80;;;;;;5097597;28;20032;-86
2021/01/26 01:37:58;;;;;;;60.53;35.25;;;154.40;2252.80;;;;;;5098485;28;20397;-86
2021/01/26 01:40:26;;;;;;;60.85;33.05;;;154.30;2252.80;;;;;;5097276;28;20020;-85
2021/01/26 01:42:53;;;;;;;89.32;47.38;;;154.30;2252.80;;;;;;5096916;28;20040;-86
2021/01/26 01:45:20;;;;;;;94.45;50.50;;;154.30;2252.80;;;;;;5096267;28;20036;-86
2021/01/26 01:47:53;;;;;;;70.88;37.55;;;154.30;2252.80;;;;;;5097707;28;20118;-86
2021/01/26 01:50:28;;;;;;;;;;;154.40;2252.80;;;;;;5096788;28;20034;-86
2021/01/26 01:53:01;;;;;;;65.43;33.20;;;154.30;2252.80;;;;;;5097339;28;19904;-86
2021/01/26 01:55:31;;;;;;;73.68;40.50;;;154.20;2252.80;;;;;;5097554;28;20055;-86
2021/01/26 01:58:03;;;;;;;67.57;45.70;;;154.30;2252.80;;;;;;5097193;28;20045;-86
2021/01/26 02:00:30;;;;;;;62.75;44.88;;;154.20;2252.80;;;;;;5097604;28;20486;-85
2021/01/26 02:03:06;;;;;;;71.80;48.53;;;154.30;2252.80;;;;;;5097296;28;20666;-86
2021/01/26 02:05:32;;;;;;;79.32;51.97;;;179.30;2252.80;;;;;;5097180;28;20031;-86
2021/01/26 02:07:58;;;;;;;76.25;50.47;;;154.20;2252.80;;;;;;5097424;28;20019;-86
2021/01/26 02:10:24;;;;;;;73.57;47.05;;;154.20;2252.80;;;;;;5097977;28;20024;-86
2021/01/26 02:12:50;;;;;;;56.92;36.97;;;179.40;2252.80;;;;;;5097103;28;20068;-85
2021/01/26 02:15:17;;;;;;;57.20;39.78;;;154.40;2252.80;;;;;;5096089;28;20490;-86
2021/01/26 02:18:10;;;;;;;75.00;48.78;;;154.30;2252.80;;;;;;5097112;28;20030;-85
2021/01/26 02:20:55;;;;;;;50.05;34.10;;;154.30;2252.80;;;;;;5114996;28;20114;-86
2021/01/26 02:23:32;;;;;;;45.67;29.75;;;154.30;2252.80;;;;;;5097794;28;20031;-86
2021/01/26 02:26:32;;;;;;;53.08;28.23;;;154.40;2252.80;;;;;;5096919;28;20547;-85
2021/01/26 02:29:39;;;;;;;46.45;24.58;;;154.30;2252.80;;;;;;5097946;28;20039;-85
2021/01/26 02:32:05;;;;;;;36.65;21.58;;;154.20;2252.80;;;;;;5012515;28;20026;-85
2021/01/26 02:34:31;;;;;;;37.33;21.52;;;154.30;2252.80;;;;;;5082988;28;20081;-85
2021/01/26 02:37:18;;;;;;;33.22;20.88;;;154.30;2252.80;;;;;;5097161;28;20093;-85
2021/01/26 02:40:19;;;;;;;25.65;14.45;;;154.30;2252.80;;;;;;5096602;28;20118;-85
2021/01/26 02:43:23;;;;;;;27.80;15.88;;;154.30;2252.80;;;;;;5096954;28;20050;-85
2021/01/26 02:46:33;;;;;;;28.42;17.33;;;154.30;2252.80;;;;;;5097261;28;20032;-85
2021/01/26 02:49:04;;;;;;;16.27;9.00;;;154.20;2252.80;;;;;;5096818;28;20463;-85
2021/01/26 02:51:43;;;;;;;7.32;4.18;;;154.10;2252.80;;;;;;5097441;28;20027;-85
2021/01/26 02:54:23;;;;;;;8.60;5.03;;;154.00;2252.80;;;;;;5100666;28;20028;-85
2021/01/26 02:57:07;;;;;;;5.85;3.08;;;153.80;2252.80;;;;;;5119108;28;20062;-84
2021/01/26 03:00:00;;;;;;;6.32;4.03;;;153.70;2252.80;;;;;;5100574;28;20073;-85
2021/01/26 03:02:32;;;;;;;7.82;3.85;;;128.80;2252.80;;;;;;5092167;28;20068;-85
2021/01/26 03:05:23;;;;;;;7.47;4.20;;;128.60;2252.80;;;;;;5100769;28;20039;-85
2021/01/26 03:07:58;;;;;;;4.93;2.70;;;128.40;2252.80;;;;;;5107495;28;20039;-85
2021/01/26 03:10:34;;;;;;;7.00;3.42;;;128.00;2252.80;;;;;;5101151;28;20089;-86
2021/01/26 03:13:04;;;;;;;6.20;2.88;;;103.20;2227.20;;;;;;5100660;28;20020;-86
2021/01/26 03:15:39;;;;;;;6.25;3.28;;;103.10;2227.20;;;;;;5100377;28;20094;-86
2021/01/26 03:18:08;;;;;;;5.15;3.33;;;103.00;2227.20;;;;;;5100749;28;20028;-85
2021/01/26 03:20:40;;;;;;;6.68;3.60;;;102.90;2227.20;;;;;;5100450;28;20019;-86
2021/01/26 03:23:09;;;;;;;6.60;3.20;;;102.60;2227.20;;;;;;5118584;28;20142;-86
2021/01/26 03:25:40;;;;;;;5.63;3.80;;;102.50;2227.20;;;;;;5101039;28;20058;-86
2021/01/26 03:28:09;;;;;;;7.28;3.58;;;102.50;2227.20;;;;;;5100323;28;20123;-86
2021/01/26 03:30:38;;;;;;;18.77;9.77;;;102.50;2227.20;;;;;;5100266;28;20020;-86
2021/01/26 03:33:10;;;;;;;21.55;11.90;;;102.40;2227.20;;;;;;5118447;28;20019;-86
2021/01/26 03:35:36;;;;;;;19.38;11.30;;;102.40;2227.20;;;;;;5100552;28;20043;-87
2021/01/26 03:38:12;;;;;;;34.90;17.13;;;77.70;2227.20;;;;;;5100210;28;20019;-86
2021/01/26 03:40:38;;;;;;;29.33;13.63;;;77.70;2227.20;;;;;;5100384;28;20030;-87
2021/01/26 03:43:04;;;;;;;33.58;15.77;;;77.60;2227.20;;;;;;5098224;28;20118;-88
2021/01/26 03:45:30;;;;;;;20.63;10.18;;;77.50;2227.20;;;;;;5100190;28;20486;-86
2021/01/26 03:48:10;;;;;;;27.65;13.48;;;77.40;2227.20;;;;;;5099899;28;20038;-85
2021/01/26 03:50:49;;;;;;;21.70;8.93;;;77.30;2227.20;;;;;;5103496;28;20030;-87
2021/01/26 03:53:43;;;;;;;15.38;6.93;;;77.20;2227.20;;;;;;5102709;28;20020;-89
2021/01/26 03:56:20;;;;;;;17.73;8.93;;;77.20;2227.20;;;;;;5117598;28;20024;-88
2021/01/26 03:59:16;;;;;;;7.53;4.80;;;77.20;2227.20;;;;;;5100760;28;20032;-87
2021/01/26 04:02:06;;;;;;;10.70;5.45;;;77.30;2227.20;;;;;;5099457;28;20030;-89
2021/01/26 04:04:40;;;;;;;11.43;7.13;;;77.20;2227.20;;;;;;5075672;28;20043;-87
2021/01/26 04:07:17;;;;;;;7.47;5.28;;;77.20;2227.20;;;;;;5099688;28;20032;-86
2021/01/26 04:09:51;;;;;;;15.43;8.68;;;77.00;2227.20;;;;;;5099396;28;20030;-88
2021/01/26 04:12:22;;;;;;;9.40;5.35;;;76.90;2227.20;;;;;;5100027;28;20028;-88
2021/01/26 04:15:23;;;;;;;14.30;9.48;;;77.00;2227.20;;;;;;5099512;28;20084;-89
2021/01/26 04:17:52;;;;;;;12.30;7.88;;;77.00;2227.20;;;;;;5096308;28;20074;-88
2021/01/26 04:20:25;;;;;;;14.20;9.00;;;77.00;2227.20;;;;;;5099428;28;20024;-86
2021/01/26 04:22:57;;;;;;;16.98;11.38;;;76.90;2227.20;;;;;;5099441;28;20032;-86
2021/01/26 04:25:31;;;;;;;9.95;6.85;;;77.00;2227.20;;;;;;5098861;28;20036;-85
2021/01/26 04:27:58;;;;;;;8.77;6.13;;;77.00;2227.20;;;;;;5117307;28;20463;-90
2021/01/26 04:30:25;;;;;;;14.10;9.00;;;77.00;2227.20;;;;;;5099322;28;20416;-87
2021/01/26 04:33:01;;;;;;;16.67;10.57;;;76.90;2227.20;;;;;;5099207;28;20483;-89
2021/01/26 04:35:27;;;;;;;13.52;8.85;;;76.90;2227.20;;;;;;5098938;28;20027;-87
2021/01/26 04:37:54;;;;;;;7.03;4.15;;;76.80;2227.20;;;;;;5098629;28;20023;-86
2021/01/26 04:40:22;;;;;;;12.65;7.75;;;76.80;2227.20;;;;;;5117616;28;20024;-87
2021/01/26 04:42:51;;;;;;;8.40;5.22;;;76.80;2227.20;;;;;;5097614;28;20055;-88
2021/01/26 04:45:38;;;;;;;17.65;11.13;;;76.90;2227.20;;;;;;5099053;28;20040;-88
2021/01/26 04:48:13;;;;;;;14.80;9.73;;;76.90;2227.20;;;;;;5098775;28;20126;-89
2021/01/26 04:50:57;;;;;;;13.57;7.20;;;76.90;2227.20;;;;;;5098861;28;20023;-89
2021/01/26 04:53:37;;;;;;;25.38;12.13;;;76.90;2227.20;;;;;;5098422;28;20546;-88
2021/01/26 04:56:30;;;;;;;42.80;23.80;;;76.80;2227.20;;;;;;5099115;28;20023;-87
2021/01/26 04:59:32;;;;;;;16.80;9.88;;;52.10;2227.20;;;;;;5098202;28;20052;-88
2021/01/26 05:02:40;;;;;;;23.38;12.73;;;76.90;2227.20;;;;;;5094640;28;20093;-87
2021/01/26 05:05:17;;;;;;;21.60;12.55;;;76.90;2227.20;;;;;;5047710;28;20039;-89
2021/01/26 05:08:13;;;;;;;35.35;20.27;;;76.90;2227.20;;;;;;5098185;28;20023;-87
2021/01/26 05:11:08;;;;;;;25.70;15.23;;;76.90;2227.20;;;;;;5095807;28;20031;-88
2021/01/26 05:13:43;;;;;;;25.02;13.93;;;76.90;2227.20;;;;;;5084856;28;20043;-87
2021/01/26 05:16:14;;;;;;;22.63;14.00;;;76.90;2227.20;;;;;;5096228;28;20051;-87
2021/01/26 05:18:39;;;;;;;16.42;10.10;;;76.90;2227.20;;;;;;5097459;28;20031;-87
2021/01/26 05:21:33;;;;;;;13.07;9.15;;;76.90;2227.20;;;;;;5096755;28;20024;-86
2021/01/26 05:24:22;;;;;;;13.13;8.82;;;76.80;2227.20;;;;;;5097247;28;20039;-86
2021/01/26 05:26:48;;;;;;;12.95;8.48;;;76.80;2227.20;;;;;;5097675;28;20028;-88
2021/01/26 05:29:15;;;;;;;16.50;11.13;;;76.80;2227.20;;;;;;5097904;28;20028;-87
2021/01/26 05:31:45;;;;;;;26.73;15.48;;;52.10;2227.20;;;;;;5098153;28;20041;-87
2021/01/26 05:34:16;;;;;;;15.95;10.27;;;51.90;2227.20;;;;;;5097464;28;20035;-87
2021/01/26 05:36:45;;;;;;;20.35;12.25;;;51.90;2227.20;;;;;;5097804;28;20085;-88
2021/01/26 05:39:20;;;;;;;19.27;11.20;;;52.00;2227.20;;;;;;5115374;28;20102;-88
2021/01/26 05:41:46;;;;;;;25.80;14.85;;;51.90;2227.20;;;;;;5097318;28;20027;-88
2021/01/26 05:44:13;;;;;;;22.38;15.23;;;51.90;2227.20;;;;;;5097549;28;20039;-89
2021/01/26 05:46:44;;;;;;;31.35;18.80;;;51.90;2227.20;;;;;;5097669;28;20424;-87
2021/01/26 05:49:11;;;;;;;27.92;15.88;;;51.90;2227.20;;;;;;5097325;28;20024;-88
2021/01/26 05:51:40;;;;;;;27.25;15.20;;;77.30;2227.20;;;;;;5097529;28;20185;-87
2021/01/26 05:54:13;;;;;;;21.48;12.60;;;51.90;2227.20;;;;;;5115741;28;20024;-87
2021/01/26 05:56:52;;;;;;;14.52;9.35;;;52.00;2227.20;;;;;;5115364;28;20058;-87
2021/01/26 05:59:37;;;;;;;15.35;10.23;;;51.90;2227.20;;;;;;5093961;28;20020;-88
2021/01/26 06:02:21;;;;;;;59.63;29.00;;;51.90;2227.20;;;;;;5096286;28;20020;-88
2021/01/26 06:04:47;;;;;;;30.05;17.88;;;51.90;2227.20;;;;;;5096452;28;20033;-87
2021/01/26 06:07:22;;;;;;;19.05;11.68;;;51.80;2227.20;;;;;;5097224;28;20027;-90
2021/01/26 06:09:49;;;;;;;12.45;8.10;;;51.80;2227.20;;;;;;5096501;28;20024;-89
2021/01/26 06:12:32;;;;;;;42.60;21.15;;;51.80;2227.20;;;;;;5095968;28;20020;-89
2021/01/26 06:14:58;;;;;;;;;;;51.80;2227.20;;;;;;5061460;28;20036;-88
2021/01/26 06:17:32;;;;;;;50.55;26.40;;;51.90;2227.20;;;;;;5075909;28;19926;-88
2021/01/26 06:20:17;;;;;;;34.28;19.25;;;51.80;2227.20;;;;;;5076898;28;20031;-87
2021/01/26 06:22:43;;;;;;;50.45;29.73;;;51.90;2227.20;;;;;;5076251;28;20020;-88
2021/01/26 06:25:33;;;;;;;40.67;22.05;;;51.90;2227.20;;;;;;5076481;28;20039;-88
2021/01/26 06:44:53;;;;;;;32.83;18.33;;;51.90;2227.20;;;;;;5092744;28;20071;-87
2021/01/26 06:48:11;;;;;;;41.33;21.77;;;51.90;2227.20;;;;;;5075834;28;20024;-89
2021/01/26 07:01:01;;;;;;;33.92;19.45;;;51.70;2227.20;;;;;;5094490;28;20081;-89
2021/01/26 07:06:33;;;;;;;38.90;25.50;;;51.70;2227.20;;;;;;5094167;28;20043;-88
2021/01/26 07:09:17;;;;;;;32.40;21.83;;;51.90;2227.20;;;;;;5076785;28;20028;-89
2021/01/26 07:12:07;;;;;;;50.03;31.60;;;51.90;2227.20;;;;;;5078001;28;20035;-87
2021/01/26 07:15:07;;;;;;;43.35;25.25;;;52.00;2227.20;;;;;;5112684;28;20103;-88
2021/01/26 07:17:51;;;;;;;32.17;20.67;;;52.00;2227.20;;;;;;5095954;28;20073;-89
2021/01/26 07:20:25;;;;;;;32.65;20.75;;;52.10;2227.20;;;;;;5095959;28;20098;-88
2021/01/26 07:23:03;;;;;;;21.05;14.10;;;52.10;2227.20;;;;;;5114437;28;20023;-88
2021/01/26 07:26:13;;;;;;;55.50;30.98;;;52.10;2227.20;;;;;;5095746;28;20038;-88
2021/01/26 07:29:17;;;;;;;45.58;26.80;;;52.00;2227.20;;;;;;5096195;28;20023;-89
2021/01/26 07:32:00;;;;;;;40.63;25.63;;;51.90;2227.20;;;;;;5096585;28;20103;-87
2021/01/26 07:34:31;;;;;;;28.55;15.30;;;52.10;2227.20;;;;;;5096014;28;20360;-87
2021/01/26 07:37:23;;;;;;;24.27;13.70;;;52.10;2227.20;;;;;;5095998;28;20055;-88
2021/01/26 07:39:49;;;;;;;30.98;23.50;;;52.00;2227.20;;;;;;5099768;28;20028;-90
2021/01/26 07:42:24;;;;;;;24.13;17.02;;;52.00;2227.20;;;;;;5099827;28;20073;-88
2021/01/26 07:45:06;;;;;;;47.92;25.50;;;52.10;2227.20;;;;;;5099351;28;20044;-87
2021/01/26 07:47:36;;;;;;;38.92;25.05;;;52.00;2227.20;;;;;;5099838;28;20028;-88
2021/01/26 07:50:21;;;;;;;24.13;16.35;;;52.10;2227.20;;;;;;5100342;28;20048;-90
2021/01/26 07:52:51;;;;;;;31.95;22.38;;;52.10;2227.20;;;;;;5099976;28;20028;-88
2021/01/26 07:55:27;;;;;;;24.33;15.43;;;52.10;2227.20;;;;;;5099350;28;20034;-88
2021/01/26 07:58:13;;;;;;;27.27;17.55;;;76.90;2227.20;;;;;;5100657;28;20024;-87
2021/01/26 08:00:44;;;;;;;36.25;22.08;;;76.80;2227.20;;;;;;5117600;28;20080;-87
2021/01/26 08:03:10;;;;;;;38.28;23.60;;;52.10;2227.20;;;;;;5099546;28;20019;-87
2021/01/26 08:06:00;;;;;;;38.50;25.20;;;52.10;2227.20;;;;;;5099434;28;20027;-87
2021/01/26 08:08:36;;;;;;;39.60;24.35;;;52.10;2227.20;;;;;;5099476;28;20026;-87
2021/01/26 08:11:13;;;;;;;24.02;17.67;;;76.80;2227.20;;;;;;5100087;28;20069;-88
2021/01/26 08:13:49;;;;;;;38.38;26.40;;;76.80;2227.20;;;;;;5099474;28;20023;-87
2021/01/26 08:16:31;;;;;;;70.85;64.47;;;76.80;2227.20;;;;;;5117475;28;20023;-88
2021/01/26 08:18:59;;;;;;;55.25;50.17;;;52.10;2227.20;;;;;;5099459;28;20028;-87
2021/01/26 08:21:32;;;;;;;44.08;33.38;;;52.10;2227.20;;;;;;5099900;28;20024;-90
2021/01/26 08:24:18;;;;;;;37.88;26.88;;;52.10;2227.20;;;;;;5099974;28;20459;-86
2021/01/26 08:26:45;;;;;;;40.83;32.90;;;52.10;2227.20;;;;;;5099232;28;20028;-88
2021/01/26 08:29:20;;;;;;;41.13;32.63;;;52.10;2227.20;;;;;;5098989;28;20107;-89
2021/01/26 08:31:46;;;;;;;55.13;43.67;;;52.10;2227.20;;;;;;5099585;28;20162;-89
2021/01/26 08:34:21;;;;;;;52.20;41.42;;;76.90;2227.20;;;;;;5099289;28;20481;-89
2021/01/26 08:37:07;;;;;;;74.78;44.28;;;76.90;2227.20;;;;;;5098767;28;20059;-88
2021/01/26 08:39:41;;;;;;;71.00;55.85;;;76.90;2227.20;;;;;;5099138;28;20474;-87
2021/01/26 08:42:09;;;;;;;103.82;65.82;;;76.90;2227.20;;;;;;5098967;28;20023;-88
2021/01/26 08:44:34;;;;;;;189.02;112.22;;;76.90;2227.20;;;;;;5093548;28;20074;-87
2021/01/26 08:47:18;;;;;;;112.78;68.20;;;76.80;2227.20;;;;;;5096449;28;20062;-89
2021/01/26 08:49:44;;;;;;;106.50;65.68;;;76.90;2227.20;;;;;;5094838;28;20032;-89
2021/01/26 08:52:22;;;;;;;106.18;72.80;;;76.90;2227.20;;;;;;5095748;28;20043;-88
2021/01/26 08:54:51;;;;;;;136.23;100.28;;;76.90;2227.20;;;;;;5095255;28;20030;-86
2021/01/26 08:57:28;;;;;;;174.80;93.65;;;76.90;2227.20;;;;;;5094844;28;20024;-89
2021/01/26 09:00:17;;;;;;;107.68;85.22;;;52.10;2227.20;;;;;;5095982;28;20056;-87
2021/01/26 09:02:50;;;;;;;118.80;94.82;;;76.80;2227.20;;;;;;5095011;28;20058;-87
2021/01/26 09:05:34;;;;;;;84.10;75.63;;;76.80;2227.20;;;;;;5094825;28;20137;-87
2021/01/26 09:08:05;;;;;;;61.10;50.15;;;76.80;2227.20;;;;;;5094931;28;20380;-87
2021/01/26 09:10:49;;;;;;;56.58;50.38;;;52.10;2227.20;;;;;;5094601;28;20032;-88
2021/01/26 09:13:32;;;;;;;63.40;53.88;;;52.10;2227.20;;;;;;5095175;28;20034;-88
2021/01/26 09:16:10;;;;;;;69.07;57.43;;;52.10;2227.20;;;;;;5093331;28;20069;-86
2021/01/26 09:18:37;;;;;;;70.22;46.60;;;52.10;2227.20;;;;;;5094642;28;20456;-88
2021/01/26 09:21:12;;;;;;;54.08;37.17;;;52.10;2227.20;;;;;;5093647;28;20137;-87
2021/01/26 09:23:39;;;;;;;44.20;31.55;;;52.10;2227.20;;;;;;5095001;28;20024;-88
2021/01/26 09:26:17;;;;;;;37.40;26.08;;;76.80;2227.20;;;;;;5095002;28;20036;-88
2021/01/26 09:28:49;;;;;;;27.27;18.08;;;76.80;2227.20;;;;;;5095493;28;20020;-89
2021/01/26 09:31:23;;;;;;;37.25;26.02;;;76.90;2227.20;;;;;;5096549;28;20050;-88
2021/01/26 09:34:02;;;;;;;27.95;19.48;;;76.90;2227.20;;;;;;5095393;28;20024;-89
2021/01/26 09:36:29;;;;;;;36.80;23.88;;;76.90;2227.20;;;;;;5094921;28;20035;-89
2021/01/26 09:39:03;;;;;;;28.05;19.58;;;76.80;2227.20;;;;;;5094073;28;20056;-89
2021/01/26 09:41:31;;;;;;;21.23;15.15;;;76.90;2227.20;;;;;;5094907;28;20028;-89
2021/01/26 09:44:10;;;;;;;27.65;19.90;;;76.80;2227.20;;;;;;5093792;28;20109;-89
2021/01/26 09:46:40;;;;;;;26.58;19.05;;;76.90;2227.20;;;;;;5092438;28;20032;-88
2021/01/26 09:49:20;;;;;;;56.65;35.15;;;76.90;2227.20;;;;;;5094629;28;20081;-88
2021/01/26 09:51:57;;;;;;;53.03;36.65;;;76.90;2227.20;;;;;;5093116;28;20494;-86
2021/01/26 09:54:41;;;;;;;31.27;24.85;;;76.90;2227.20;;;;;;5093823;28;20111;-87
2021/01/26 09:57:10;;;;;;;43.90;33.25;;;76.90;2227.20;;;;;;5093435;28;20028;-88
2021/01/26 09:59:37;;;;;;;41.20;29.23;;;76.90;2227.20;;;;;;5093797;28;20020;-86
2021/01/26 10:02:12;;;;;;;48.10;33.08;;;76.90;2227.20;;;;;;5093174;28;20430;-88
2021/01/26 10:04:40;;;;;;;53.72;34.60;;;76.90;2227.20;;;;;;5093328;28;20078;-89
2021/01/26 10:07:07;;;;;;;32.80;24.20;;;76.90;2227.20;;;;;;5094079;28;20471;-87
2021/01/26 10:09:40;;;;;;;28.73;20.27;;;76.90;2227.20;;;;;;5093866;28;20028;-90
2021/01/26 10:12:33;;;;;;;43.53;29.55;;;76.90;2227.20;;;;;;5093914;28;20020;-88
2021/01/26 10:15:13;;;;;;;25.80;15.63;;;76.80;2227.20;;;;;;5076764;28;20031;-88
2021/01/26 10:17:53;;;;;;;30.67;20.88;;;76.90;2227.20;;;;;;5094052;28;20375;-89
2021/01/26 10:20:38;;;;;;;33.08;22.25;;;76.90;2227.20;;;;;;5093688;28;20020;-87
2021/01/26 10:23:13;;;;;;;34.83;23.67;;;76.90;2227.20;;;;;;5094545;28;20023;-88
2021/01/26 10:25:44;;;;;;;34.80;25.23;;;76.90;2227.20;;;;;;5093804;28;20036;-87
2021/01/26 10:28:13;;;;;;;43.55;29.25;;;77.00;2227.20;;;;;;5094802;28;20085;-89
2021/01/26 10:30:44;;;;;;;76.35;45.28;;;77.00;2227.20;;;;;;5093198;28;20162;-87
2021/01/26 10:33:28;;;;;;;55.03;34.20;;;76.90;2227.20;;;;;;5093260;28;20031;-86
2021/01/26 10:35:54;;;;;;;45.70;33.03;;;77.00;2227.20;;;;;;5095084;28;20530;-87
2021/01/26 10:38:31;;;;;;;43.10;27.25;;;77.00;2227.20;;;;;;5093736;28;20414;-89
2021/01/26 10:41:18;;;;;;;28.92;20.70;;;77.00;2227.20;;;;;;5093582;28;20032;-90
2021/01/26 10:43:44;;;;;;;33.15;22.80;;;76.90;2227.20;;;;;;5093698;28;20052;-88
2021/01/26 10:46:12;;;;;;;32.70;21.60;;;52.10;2227.20;;;;;;5093224;28;20085;-88
2021/01/26 10:48:43;;;;;;;41.40;29.08;;;76.90;2227.20;;;;;;5093666;28;20055;-89
2021/01/26 10:51:15;;;;;;;36.95;24.30;;;77.00;2227.20;;;;;;5093429;28;20119;-87
2021/01/26 10:53:47;;;;;;;54.23;37.37;;;77.00;2227.20;;;;;;5092920;28;20114;-87
2021/01/26 10:56:14;;;;;;;44.00;28.33;;;77.00;2227.20;;;;;;5093494;28;20024;-87
2021/01/26 10:58:44;;;;;;;43.30;26.83;;;77.30;2227.20;;;;;;5093482;28;20744;-87
2021/01/26 11:01:13;;;;;;;44.25;28.55;;;77.00;2227.20;;;;;;5092851;28;20048;-83
2021/01/26 11:03:39;;;;;;;43.50;27.23;;;77.10;2227.20;;;;;;5092915;28;20035;-90
2021/01/26 11:06:06;;;;;;;54.53;34.05;;;52.00;2227.20;;;;;;5093492;28;20044;-87
2021/01/26 11:08:32;;;;;;;90.65;55.53;;;77.10;2227.20;;;;;;5094582;28;20044;-87
2021/01/26 11:10:58;;;;;;;84.25;50.90;;;77.10;2227.20;;;;;;5093364;28;20024;-87
2021/01/26 11:13:24;;;;;;;55.08;36.08;;;77.20;2227.20;;;;;;5095396;28;20449;-88
2021/01/26 11:15:50;;;;;;;42.15;29.02;;;77.20;2227.20;;;;;;5097208;28;20471;-87
2021/01/26 11:18:16;;;;;;;46.58;31.27;;;77.10;2227.20;;;;;;5096785;28;20028;-89
2021/01/26 11:20:42;;;;;;;93.28;55.75;;;77.20;2227.20;;;;;;5097727;28;20048;-86
2021/01/26 11:23:08;;;;;;;34.08;21.98;;;77.10;2227.20;;;;;;5096483;28;20028;-86
2021/01/26 11:25:35;;;;;;;30.17;20.33;;;77.20;2227.20;;;;;;5096709;28;20031;-83
2021/01/26 11:28:02;;;;;;;50.22;31.70;;;77.10;2227.20;;;;;;5096405;28;20487;-86
2021/01/26 11:30:28;;;;;;;70.18;40.53;;;77.10;2227.20;;;;;;5096499;28;20050;-87
2021/01/26 11:32:54;;;;;;;44.05;28.98;;;77.10;2227.20;;;;;;5096368;28;20471;-85
2021/01/26 11:35:24;;;;;;;40.60;26.45;;;77.00;2227.20;;;;;;5096340;28;20028;-85
2021/01/26 11:37:50;;;;;;;50.50;33.50;;;77.00;2227.20;;;;;;5096430;28;20107;-89
2021/01/26 11:40:17;;;;;;;35.08;22.48;;;77.00;2227.20;;;;;;5096652;28;20121;-85
2021/01/26 11:42:43;;;;;;;72.30;37.65;;;76.90;2227.20;;;;;;5096599;28;20054;-85
2021/01/26 11:45:14;;;;;;;30.30;20.05;;;76.90;2227.20;;;;;;5100029;28;20102;-89
2021/01/26 11:47:40;;;;;;;42.92;27.08;;;76.90;2227.20;;;;;;5099792;28;20085;-82
2021/01/26 11:50:09;;;;;;;48.65;30.45;;;76.80;2227.20;;;;;;5099144;28;20019;-84
2021/01/26 11:52:35;;;;;;;22.23;14.73;;;76.90;2227.20;;;;;;5099560;28;20097;-88
2021/01/26 11:55:03;;;;;;;26.95;18.80;;;52.10;2227.20;;;;;;5099762;28;20035;-88
2021/01/26 11:57:28;;;;;;;28.83;19.40;;;52.10;2227.20;;;;;;5099570;28;20527;-86
2021/01/26 11:59:54;;;;;;;19.50;14.20;;;52.00;2227.20;;;;;;5099477;28;20024;-84
2021/01/26 12:02:20;;;;;;;24.13;15.70;;;52.10;2227.20;;;;;;5092398;28;20428;-87
2021/01/26 12:04:46;;;;;;;23.95;16.52;;;52.10;2227.20;;;;;;5089022;28;20027;-85
2021/01/26 12:07:12;;;;;;;32.42;22.50;;;52.10;2227.20;;;;;;5108597;28;20519;-85
2021/01/26 12:09:38;;;;;;;25.05;18.38;;;52.10;2227.20;;;;;;5093445;28;20023;-86
2021/01/26 12:12:04;;;;;;;25.50;17.42;;;52.10;2227.20;;;;;;5097557;28;20051;-87
2021/01/26 12:14:30;;;;;;;26.60;18.10;;;77.00;2227.20;;;;;;5097125;28;20059;-86
2021/01/26 12:16:56;;;;;;;24.42;15.80;;;76.80;2227.20;;;;;;5094196;28;20047;-85
2021/01/26 12:19:21;;;;;;;33.58;23.92;;;76.90;2227.20;;;;;;5092640;28;20163;-86
2021/01/26 12:21:47;;;;;;;31.17;21.17;;;76.90;2227.20;;;;;;5110274;28;20020;-85
2021/01/26 12:24:13;;;;;;;41.00;28.15;;;76.90;2227.20;;;;;;5090400;28;20071;-87
2021/01/26 12:26:39;;;;;;;38.22;25.77;;;76.90;2227.20;;;;;;5091551;28;20123;-86
2021/01/26 12:29:05;;;;;;;44.67;39.47;;;77.00;2227.20;;;;;;5084552;28;20024;-87
2021/01/26 12:31:30;;;;;;;45.65;38.40;;;77.10;2227.20;;;;;;5076298;28;20024;-86
2021/01/26 12:33:57;;;;;;;26.63;19.85;;;77.10;2227.20;;;;;;5093449;28;20108;-86
2021/01/26 12:36:23;;;;;;;33.70;22.95;;;77.00;2227.20;;;;;;5110016;28;20099;-88
2021/01/26 12:38:49;;;;;;;25.55;18.33;;;77.00;2227.20;;;;;;5106397;28;20065;-88
2021/01/26 12:41:14;;;;;;;33.28;21.90;;;77.00;2227.20;;;;;;5092139;28;20016;-86
2021/01/26 12:43:40;;;;;;;35.67;24.23;;;76.90;2227.20;;;;;;5090799;28;20539;-86
2021/01/26 12:46:06;;;;;;;46.95;32.78;;;77.20;2227.20;;;;;;5085506;28;20039;-87
2021/01/26 12:48:32;;;;;;;49.03;29.40;;;76.90;2227.20;;;;;;5090707;28;20085;-88
2021/01/26 12:50:57;;;;;;;31.10;21.98;;;76.90;2227.20;;;;;;5092404;28;20019;-87
2021/01/26 12:53:24;;;;;;;52.80;35.58;;;76.90;2227.20;;;;;;5092719;28;20015;-86
2021/01/26 12:55:50;;;;;;;48.92;31.52;;;76.90;2227.20;;;;;;5090710;28;20016;-86
2021/01/26 12:58:16;;;;;;;31.17;22.88;;;76.90;2227.20;;;;;;5090136;28;20047;-84
2021/01/26 13:00:42;;;;;;;30.45;22.20;;;76.90;2227.20;;;;;;5091742;28;20096;-81
2021/01/26 13:03:08;;;;;;;40.60;27.33;;;76.80;2227.20;;;;;;5093277;28;20158;-87
2021/01/26 13:05:33;;;;;;;36.65;23.08;;;76.90;2227.20;;;;;;5092117;28;20040;-84